sensor_id;sensor_type;location;lat;lon;timestamp;pressure;altitude;pressure_sealevel;temperature;humidity
50592;BME280;36548;50.506;30.834;2023-06-04T00:00:16;100755.25;;;15.08;34.84
50592;BME280;36548;50.506;30.834;2023-06-04T00:01:32;100755.78;;;15.13;34.98
50592;BME280;36548;50.506;30.834;2023-06-04T00:02:41;100760.38;;;15.00;34.60
50592;BME280;36548;50.506;30.834;2023-06-04T00:03:56;100757.67;;;15.00;35.07
50592;BME280;36548;50.506;30.834;2023-06-04T00:05:07;100761.29;;;14.88;34.92
50592;BME280;36548;50.506;30.834;2023-06-04T00:06:43;100753.59;;;14.94;34.81
50592;BME280;36548;50.506;30.834;2023-06-04T00:07:53;100764.47;;;14.81;34.89
50592;BME280;36548;50.506;30.834;2023-06-04T00:09:10;100754.27;;;14.85;34.92
50592;BME280;36548;50.506;30.834;2023-06-04T00:10:20;100766.63;;;14.76;34.64
50592;BME280;36548;50.506;30.834;2023-06-04T00:11:37;100756.85;;;14.87;34.59
50592;BME280;36548;50.506;30.834;2023-06-04T00:12:50;100769.34;;;14.76;34.66
50592;BME280;36548;50.506;30.834;2023-06-04T00:14:08;100758.94;;;14.83;34.72
50592;BME280;36548;50.506;30.834;2023-06-04T00:15:18;100766.10;;;14.71;34.78
50592;BME280;36548;50.506;30.834;2023-06-04T00:16:34;100757.73;;;14.87;34.66
50592;BME280;36548;50.506;30.834;2023-06-04T00:17:44;100765.25;;;14.71;34.82
50592;BME280;36548;50.506;30.834;2023-06-04T00:18:53;100766.22;;;14.70;34.70
50592;BME280;36548;50.506;30.834;2023-06-04T00:20:05;100768.80;;;14.71;34.71
50592;BME280;36548;50.506;30.834;2023-06-04T00:21:15;100773.89;;;14.76;34.76
50592;BME280;36548;50.506;30.834;2023-06-04T00:22:25;100770.30;;;14.75;34.79
50592;BME280;36548;50.506;30.834;2023-06-04T00:23:43;100769.75;;;14.83;34.79
50592;BME280;36548;50.506;30.834;2023-06-04T00:24:53;100772.16;;;14.75;34.76
50592;BME280;36548;50.506;30.834;2023-06-04T00:26:09;100761.41;;;14.86;35.08
50592;BME280;36548;50.506;30.834;2023-06-04T00:27:19;100761.78;;;14.69;34.86
50592;BME280;36548;50.506;30.834;2023-06-04T00:28:35;100755.39;;;14.82;34.87
50592;BME280;36548;50.506;30.834;2023-06-04T00:29:45;100762.31;;;14.74;34.78
50592;BME280;36548;50.506;30.834;2023-06-04T00:31:05;100756.67;;;14.77;35.27
50592;BME280;36548;50.506;30.834;2023-06-04T00:32:16;100758.58;;;14.63;35.13
50592;BME280;36548;50.506;30.834;2023-06-04T00:33:31;100755.94;;;14.75;34.98
50592;BME280;36548;50.506;30.834;2023-06-04T00:34:41;100763.87;;;14.65;35.04
50592;BME280;36548;50.506;30.834;2023-06-04T00:35:56;100765.66;;;14.77;35.09
50592;BME280;36548;50.506;30.834;2023-06-04T00:37:06;100767.30;;;14.67;34.96
50592;BME280;36548;50.506;30.834;2023-06-04T00:38:21;100765.43;;;14.80;34.96
50592;BME280;36548;50.506;30.834;2023-06-04T00:39:35;100766.88;;;14.73;34.96
50592;BME280;36548;50.506;30.834;2023-06-04T00:40:51;100760.20;;;14.90;34.78
50592;BME280;36548;50.506;30.834;2023-06-04T00:42:00;100765.78;;;14.76;34.84
50592;BME280;36548;50.506;30.834;2023-06-04T00:43:17;100759.67;;;14.85;34.83
50592;BME280;36548;50.506;30.834;2023-06-04T00:44:26;100766.75;;;14.75;34.92
50592;BME280;36548;50.506;30.834;2023-06-04T00:45:35;100765.91;;;14.74;34.97
50592;BME280;36548;50.506;30.834;2023-06-04T00:46:52;100757.97;;;14.84;34.67
50592;BME280;36548;50.506;30.834;2023-06-04T00:48:03;100761.34;;;14.75;34.70
50592;BME280;36548;50.506;30.834;2023-06-04T00:49:20;100752.89;;;14.79;34.81
50592;BME280;36548;50.506;30.834;2023-06-04T00:50:30;100753.91;;;14.65;34.61
50592;BME280;36548;50.506;30.834;2023-06-04T00:51:48;100761.23;;;14.76;34.54
50592;BME280;36548;50.506;30.834;2023-06-04T00:52:57;100763.63;;;14.68;34.88
50592;BME280;36548;50.506;30.834;2023-06-04T00:54:14;100759.67;;;14.85;37.14
50592;BME280;36548;50.506;30.834;2023-06-04T00:55:28;100764.90;;;14.75;36.65
50592;BME280;36548;50.506;30.834;2023-06-04T00:56:45;100759.35;;;14.90;36.79
50592;BME280;36548;50.506;30.834;2023-06-04T00:57:57;100772.45;;;14.83;37.64
50592;BME280;36548;50.506;30.834;2023-06-04T00:59:14;100769.81;;;14.94;38.44
50592;BME280;36548;50.506;30.834;2023-06-04T01:00:24;100774.39;;;14.81;36.65
50592;BME280;36548;50.506;30.834;2023-06-04T01:01:58;100769.52;;;14.86;36.52
50592;BME280;36548;50.506;30.834;2023-06-04T01:03:16;100773.13;;;14.74;36.80
50592;BME280;36548;50.506;30.834;2023-06-04T01:04:49;100770.19;;;14.77;36.99
50592;BME280;36548;50.506;30.834;2023-06-04T01:07:30;100770.66;;;14.71;35.22
50592;BME280;36548;50.506;30.834;2023-06-04T01:08:41;100774.11;;;14.60;34.74
50592;BME280;36548;50.506;30.834;2023-06-04T01:09:58;100772.39;;;14.72;35.95
50592;BME280;36548;50.506;30.834;2023-06-04T01:11:18;100775.08;;;14.59;36.40
50592;BME280;36548;50.506;30.834;2023-06-04T01:12:28;100777.89;;;14.57;37.96
50592;BME280;36548;50.506;30.834;2023-06-04T01:13:39;100772.48;;;14.57;38.82
50592;BME280;36548;50.506;30.834;2023-06-04T01:14:55;100775.20;;;14.70;39.30
50592;BME280;36548;50.506;30.834;2023-06-04T01:16:04;100775.95;;;14.59;39.55
50592;BME280;36548;50.506;30.834;2023-06-04T01:17:37;100778.77;;;14.71;39.84
50592;BME280;36548;50.506;30.834;2023-06-04T01:18:50;100780.83;;;14.54;40.08
50592;BME280;36548;50.506;30.834;2023-06-04T01:20:20;100770.13;;;14.53;38.71
50592;BME280;36548;50.506;30.834;2023-06-04T01:21:36;100775.30;;;14.69;39.38
50592;BME280;36548;50.506;30.834;2023-06-04T01:24:15;100772.94;;;14.64;39.11
50592;BME280;36548;50.506;30.834;2023-06-04T01:25:37;100778.70;;;14.46;37.17
50592;BME280;36548;50.506;30.834;2023-06-04T01:27:00;100772.37;;;14.59;36.65
50592;BME280;36548;50.506;30.834;2023-06-04T01:28:12;100772.30;;;14.47;36.92
50592;BME280;36548;50.506;30.834;2023-06-04T01:29:32;100772.37;;;14.59;36.34
50592;BME280;36548;50.506;30.834;2023-06-04T01:30:44;100775.00;;;14.47;35.93
50592;BME280;36548;50.506;30.834;2023-06-04T01:32:01;100777.05;;;14.57;35.60
50592;BME280;36548;50.506;30.834;2023-06-04T01:34:30;100776.62;;;14.50;35.20
50592;BME280;36548;50.506;30.834;2023-06-04T01:35:41;100777.39;;;14.39;35.35
50592;BME280;36548;50.506;30.834;2023-06-04T01:36:56;100774.03;;;14.48;35.12
50592;BME280;36548;50.506;30.834;2023-06-04T01:38:06;100778.47;;;14.37;35.03
50592;BME280;36548;50.506;30.834;2023-06-04T01:39:17;100786.49;;;14.38;34.85
50592;BME280;36548;50.506;30.834;2023-06-04T01:40:32;100781.40;;;14.46;34.99
50592;BME280;36548;50.506;30.834;2023-06-04T01:41:42;100787.34;;;14.39;34.89
50592;BME280;36548;50.506;30.834;2023-06-04T01:42:51;100784.75;;;14.37;34.94
50592;BME280;36548;50.506;30.834;2023-06-04T01:44:03;100796.41;;;14.38;35.92
50592;BME280;36548;50.506;30.834;2023-06-04T01:45:21;100792.20;;;14.46;37.16
50592;BME280;36548;50.506;30.834;2023-06-04T01:46:30;100795.56;;;14.37;37.60
50592;BME280;36548;50.506;30.834;2023-06-04T01:47:40;100791.12;;;14.36;36.02
50592;BME280;36548;50.506;30.834;2023-06-04T01:48:50;100794.91;;;14.33;37.13
50592;BME280;36548;50.506;30.834;2023-06-04T01:49:59;100800.84;;;14.39;37.19
50592;BME280;36548;50.506;30.834;2023-06-04T01:51:15;100792.94;;;14.48;39.04
50592;BME280;36548;50.506;30.834;2023-06-04T01:52:24;100800.84;;;14.39;39.44
50592;BME280;36548;50.506;30.834;2023-06-04T01:53:41;100798.11;;;14.52;39.79
50592;BME280;36548;50.506;30.834;2023-06-04T01:54:51;100805.05;;;14.43;39.97
50592;BME280;36548;50.506;30.834;2023-06-04T01:56:01;100814.13;;;14.42;40.18
50592;BME280;36548;50.506;30.834;2023-06-04T01:57:12;100807.88;;;14.41;40.21
50592;BME280;36548;50.506;30.834;2023-06-04T01:58:27;100796.61;;;14.47;40.60
50592;BME280;36548;50.506;30.834;2023-06-04T01:59:37;100807.44;;;14.35;40.69
50592;BME280;36548;50.506;30.834;2023-06-04T02:00:55;100802.58;;;14.40;40.95
50592;BME280;36548;50.506;30.834;2023-06-04T02:02:07;100803.77;;;14.23;41.16
50592;BME280;36548;50.506;30.834;2023-06-04T02:03:18;100796.77;;;14.20;41.37
50592;BME280;36548;50.506;30.834;2023-06-04T02:04:28;100806.91;;;14.17;41.64
50592;BME280;36548;50.506;30.834;2023-06-04T02:05:39;100807.77;;;14.17;41.86
50592;BME280;36548;50.506;30.834;2023-06-04T02:06:50;100806.06;;;14.16;42.01
50592;BME280;36548;50.506;30.834;2023-06-04T02:08:00;100808.65;;;14.18;42.08
50592;BME280;36548;50.506;30.834;2023-06-04T02:09:10;100816.75;;;14.18;42.14
50592;BME280;36548;50.506;30.834;2023-06-04T02:10:25;100808.09;;;14.25;42.35
50592;BME280;36548;50.506;30.834;2023-06-04T02:11:35;100815.02;;;14.17;42.39
50592;BME280;36548;50.506;30.834;2023-06-04T02:12:59;100813.05;;;14.19;42.60
50592;BME280;36548;50.506;30.834;2023-06-04T02:14:15;100809.17;;;14.36;42.84
50592;BME280;36548;50.506;30.834;2023-06-04T02:15:25;100818.70;;;14.28;42.55
50592;BME280;36548;50.506;30.834;2023-06-04T02:16:34;100815.66;;;14.33;42.65
50592;BME280;36548;50.506;30.834;2023-06-04T02:17:45;100808.95;;;14.39;42.60
50592;BME280;36548;50.506;30.834;2023-06-04T02:18:56;100813.89;;;14.45;42.31
50592;BME280;36548;50.506;30.834;2023-06-04T02:20:17;100797.69;;;14.58;42.20
50592;BME280;36548;50.506;30.834;2023-06-04T02:21:26;100807.10;;;14.52;42.11
50592;BME280;36548;50.506;30.834;2023-06-04T02:22:41;100812.27;;;14.68;42.06
50592;BME280;36548;50.506;30.834;2023-06-04T02:23:50;100808.49;;;14.58;41.66
50592;BME280;36548;50.506;30.834;2023-06-04T02:25:06;100808.14;;;14.75;42.02
50592;BME280;36548;50.506;30.834;2023-06-04T02:26:20;100818.09;;;14.75;41.94
50592;BME280;36548;50.506;30.834;2023-06-04T02:27:31;100817.55;;;14.82;41.55
50592;BME280;36548;50.506;30.834;2023-06-04T02:28:46;100808.19;;;14.99;41.39
50592;BME280;36548;50.506;30.834;2023-06-04T02:29:55;100811.56;;;14.90;41.32
50592;BME280;36548;50.506;30.834;2023-06-04T02:31:05;100820.20;;;14.95;41.62
50592;BME280;36548;50.506;30.834;2023-06-04T02:32:20;100809.33;;;15.08;41.43
50592;BME280;36548;50.506;30.834;2023-06-04T02:33:30;100814.33;;;15.02;41.47
50592;BME280;36548;50.506;30.834;2023-06-04T02:34:39;100815.83;;;15.06;41.59
50592;BME280;36548;50.506;30.834;2023-06-04T02:35:54;100802.88;;;15.22;41.57
50592;BME280;36548;50.506;30.834;2023-06-04T02:37:05;100806.06;;;15.16;41.53
50592;BME280;36548;50.506;30.834;2023-06-04T02:38:21;100808.22;;;15.35;41.47
50592;BME280;36548;50.506;30.834;2023-06-04T02:39:30;100817.55;;;15.31;41.33
50592;BME280;36548;50.506;30.834;2023-06-04T02:40:45;100817.27;;;15.47;41.26
50592;BME280;36548;50.506;30.834;2023-06-04T02:41:55;100818.23;;;15.46;41.20
50592;BME280;36548;50.506;30.834;2023-06-04T02:43:06;100819.72;;;15.50;41.02
50592;BME280;36548;50.506;30.834;2023-06-04T02:44:15;100810.52;;;15.53;40.87
50592;BME280;36548;50.506;30.834;2023-06-04T02:45:32;100807.02;;;15.75;41.02
50592;BME280;36548;50.506;30.834;2023-06-04T02:46:43;100812.55;;;15.73;41.06
50592;BME280;36548;50.506;30.834;2023-06-04T02:47:59;100803.53;;;15.97;40.61
50592;BME280;36548;50.506;30.834;2023-06-04T02:49:09;100807.46;;;15.93;40.38
50592;BME280;36548;50.506;30.834;2023-06-04T02:50:24;100807.48;;;16.15;40.54
50592;BME280;36548;50.506;30.834;2023-06-04T02:51:34;100815.01;;;16.12;40.57
50592;BME280;36548;50.506;30.834;2023-06-04T02:52:43;100813.53;;;16.19;40.79
50592;BME280;36548;50.506;30.834;2023-06-04T02:53:58;100808.49;;;16.37;40.62
50592;BME280;36548;50.506;30.834;2023-06-04T02:55:09;100817.72;;;16.34;40.49
50592;BME280;36548;50.506;30.834;2023-06-04T02:56:26;100807.38;;;16.51;40.41
50592;BME280;36548;50.506;30.834;2023-06-04T02:57:36;100823.14;;;16.46;40.15
50592;BME280;36548;50.506;30.834;2023-06-04T02:58:49;100812.80;;;16.51;40.16
50592;BME280;36548;50.506;30.834;2023-06-04T03:00:08;100813.03;;;16.70;39.66
50592;BME280;36548;50.506;30.834;2023-06-04T03:01:27;100819.69;;;16.66;39.57
50592;BME280;36548;50.506;30.834;2023-06-04T03:02:45;100819.67;;;16.89;38.82
50592;BME280;36548;50.506;30.834;2023-06-04T03:03:57;100820.66;;;16.88;38.76
50592;BME280;36548;50.506;30.834;2023-06-04T03:05:14;100819.77;;;17.10;37.71
50592;BME280;36548;50.506;30.834;2023-06-04T03:06:24;100828.66;;;17.01;37.95
50592;BME280;36548;50.506;30.834;2023-06-04T03:07:42;100819.20;;;17.28;38.00
50592;BME280;36548;50.506;30.834;2023-06-04T03:08:52;100824.23;;;17.32;38.75
50592;BME280;36548;50.506;30.834;2023-06-04T03:10:08;100819.92;;;17.62;38.34
50592;BME280;36548;50.506;30.834;2023-06-04T03:11:19;100826.07;;;17.64;38.73
50592;BME280;36548;50.506;30.834;2023-06-04T03:12:36;100824.85;;;17.89;38.81
50592;BME280;36548;50.506;30.834;2023-06-04T03:13:45;100829.06;;;17.94;38.88
50592;BME280;36548;50.506;30.834;2023-06-04T03:14:55;100821.41;;;18.09;38.82
50592;BME280;36548;50.506;30.834;2023-06-04T03:16:12;100825.24;;;18.27;38.22
50592;BME280;36548;50.506;30.834;2023-06-04T03:17:22;100832.80;;;18.23;37.95
50592;BME280;36548;50.506;30.834;2023-06-04T03:18:39;100823.88;;;18.43;37.64
50592;BME280;36548;50.506;30.834;2023-06-04T03:19:49;100830.45;;;18.40;37.47
50592;BME280;36548;50.506;30.834;2023-06-04T03:20:59;100836.48;;;18.44;36.90
50592;BME280;36548;50.506;30.834;2023-06-04T03:22:15;100828.38;;;18.53;37.15
50592;BME280;36548;50.506;30.834;2023-06-04T03:23:25;100831.23;;;18.52;37.69
50592;BME280;36548;50.506;30.834;2023-06-04T03:24:42;100841.47;;;18.79;37.45
50592;BME280;36548;50.506;30.834;2023-06-04T03:25:51;100835.05;;;18.80;37.31
50592;BME280;36548;50.506;30.834;2023-06-04T03:27:02;100846.58;;;18.94;36.35
50592;BME280;36548;50.506;30.834;2023-06-04T03:28:18;100841.73;;;19.17;35.51
50592;BME280;36548;50.506;30.834;2023-06-04T03:29:29;100843.61;;;19.16;35.53
50592;BME280;36548;50.506;30.834;2023-06-04T03:30:41;100839.91;;;19.27;35.40
50592;BME280;36548;50.506;30.834;2023-06-04T03:31:56;100834.33;;;19.48;35.23
50592;BME280;36548;50.506;30.834;2023-06-04T03:33:07;100835.62;;;19.44;35.27
50592;BME280;36548;50.506;30.834;2023-06-04T03:34:16;100841.36;;;19.51;34.75
50592;BME280;36548;50.506;30.834;2023-06-04T03:35:26;100837.49;;;19.63;33.49
50592;BME280;36548;50.506;30.834;2023-06-04T03:36:41;100839.34;;;19.82;32.94
50592;BME280;36548;50.506;30.834;2023-06-04T03:37:52;100842.78;;;19.74;32.84
50592;BME280;36548;50.506;30.834;2023-06-04T03:39:01;100844.22;;;19.69;32.80
50592;BME280;36548;50.506;30.834;2023-06-04T03:40:17;100847.52;;;19.82;33.07
50592;BME280;36548;50.506;30.834;2023-06-04T03:41:27;100846.94;;;19.79;33.26
50592;BME280;36548;50.506;30.834;2023-06-04T03:42:36;100848.39;;;19.92;32.89
50592;BME280;36548;50.506;30.834;2023-06-04T03:43:46;100847.23;;;20.05;32.29
50592;BME280;36548;50.506;30.834;2023-06-04T03:45:01;100840.84;;;20.34;32.20
50592;BME280;36548;50.506;30.834;2023-06-04T03:46:12;100844.69;;;20.41;31.67
50592;BME280;36548;50.506;30.834;2023-06-04T03:47:21;100847.65;;;20.57;30.53
50592;BME280;36548;50.506;30.834;2023-06-04T03:48:31;100854.36;;;20.73;30.30
50592;BME280;36548;50.506;30.834;2023-06-04T03:49:41;100844.50;;;20.90;30.56
50592;BME280;36548;50.506;30.834;2023-06-04T03:50:50;100837.07;;;21.10;29.95
50592;BME280;36548;50.506;30.834;2023-06-04T03:52:06;100842.77;;;21.35;28.13
50592;BME280;36548;50.506;30.834;2023-06-04T03:53:16;100836.14;;;21.37;27.81
50592;BME280;36548;50.506;30.834;2023-06-04T03:54:32;100835.56;;;21.61;27.30
50592;BME280;36548;50.506;30.834;2023-06-04T03:55:42;100842.27;;;21.67;26.96
50592;BME280;36548;50.506;30.834;2023-06-04T03:56:58;100833.41;;;21.91;26.12
50592;BME280;36548;50.506;30.834;2023-06-04T03:58:07;100834.41;;;21.90;26.37
50592;BME280;36548;50.506;30.834;2023-06-04T03:59:18;100839.27;;;21.96;25.72
50592;BME280;36548;50.506;30.834;2023-06-04T04:00:30;100836.36;;;21.98;25.43
50592;BME280;36548;50.506;30.834;2023-06-04T04:01:42;100835.58;;;22.06;25.81
50592;BME280;36548;50.506;30.834;2023-06-04T04:02:59;100832.47;;;22.27;26.01
50592;BME280;36548;50.506;30.834;2023-06-04T04:04:11;100833.80;;;22.23;25.93
50592;BME280;36548;50.506;30.834;2023-06-04T04:05:21;100839.50;;;22.29;26.18
50592;BME280;36548;50.506;30.834;2023-06-04T04:06:37;100830.03;;;22.42;25.67
50592;BME280;36548;50.506;30.834;2023-06-04T04:07:47;100833.56;;;22.34;26.12
50592;BME280;36548;50.506;30.834;2023-06-04T04:09:04;100826.84;;;22.55;26.18
50592;BME280;36548;50.506;30.834;2023-06-04T04:10:17;100830.54;;;22.45;26.32
50592;BME280;36548;50.506;30.834;2023-06-04T04:11:32;100832.89;;;22.40;26.53
50592;BME280;36548;50.506;30.834;2023-06-04T04:12:43;100835.53;;;22.24;26.75
50592;BME280;36548;50.506;30.834;2023-06-04T04:13:58;100839.11;;;22.24;26.87
50592;BME280;36548;50.506;30.834;2023-06-04T04:15:10;100847.53;;;22.05;26.66
50592;BME280;36548;50.506;30.834;2023-06-04T04:16:25;100845.47;;;22.07;27.00
50592;BME280;36548;50.506;30.834;2023-06-04T04:17:37;100849.19;;;21.98;26.92
50592;BME280;36548;50.506;30.834;2023-06-04T04:18:53;100851.69;;;21.91;26.96
50592;BME280;36548;50.506;30.834;2023-06-04T04:20:04;100849.91;;;21.63;27.60
50592;BME280;36548;50.506;30.834;2023-06-04T04:21:15;100852.09;;;21.60;27.92
50592;BME280;36548;50.506;30.834;2023-06-04T04:22:31;100856.22;;;21.64;28.17
50592;BME280;36548;50.506;30.834;2023-06-04T04:23:44;100861.16;;;21.60;28.31
50592;BME280;36548;50.506;30.834;2023-06-04T04:25:00;100867.55;;;21.69;27.58
50592;BME280;36548;50.506;30.834;2023-06-04T04:26:10;100860.56;;;21.39;27.91
50592;BME280;36548;50.506;30.834;2023-06-04T04:27:19;100867.57;;;21.23;28.28
50592;BME280;36548;50.506;30.834;2023-06-04T04:28:29;100868.36;;;21.16;28.55
50592;BME280;36548;50.506;30.834;2023-06-04T04:29:44;100859.53;;;21.22;28.73
50592;BME280;36548;50.506;30.834;2023-06-04T04:30:56;100867.63;;;21.14;28.77
50592;BME280;36548;50.506;30.834;2023-06-04T04:32:05;100879.91;;;21.27;28.59
50592;BME280;36548;50.506;30.834;2023-06-04T04:33:23;100873.12;;;21.32;27.74
50592;BME280;36548;50.506;30.834;2023-06-04T04:34:37;100875.28;;;21.10;27.93
50592;BME280;36548;50.506;30.834;2023-06-04T04:35:54;100872.73;;;20.99;28.71
50592;BME280;36548;50.506;30.834;2023-06-04T04:37:05;100879.22;;;20.70;28.96
50592;BME280;36548;50.506;30.834;2023-06-04T04:38:28;100874.98;;;20.85;29.21
50592;BME280;36548;50.506;30.834;2023-06-04T04:39:40;100876.34;;;20.71;29.37
50592;BME280;36548;50.506;30.834;2023-06-04T04:41:02;100876.83;;;20.85;30.25
50592;BME280;36548;50.506;30.834;2023-06-04T04:42:12;100880.39;;;20.95;29.81
50592;BME280;36548;50.506;30.834;2023-06-04T04:43:32;100872.62;;;21.18;29.71
50592;BME280;36548;50.506;30.834;2023-06-04T04:44:43;100882.39;;;20.93;29.23
50592;BME280;36548;50.506;30.834;2023-06-04T04:46:01;100879.17;;;21.07;29.33
50592;BME280;36548;50.506;30.834;2023-06-04T04:47:10;100873.10;;;20.86;29.40
50592;BME280;36548;50.506;30.834;2023-06-04T04:48:26;100860.23;;;21.06;29.87
50592;BME280;36548;50.506;30.834;2023-06-04T04:49:36;100866.90;;;20.93;29.54
50592;BME280;36548;50.506;30.834;2023-06-04T04:50:52;100862.08;;;21.05;29.44
50592;BME280;36548;50.506;30.834;2023-06-04T04:52:01;100875.47;;;20.99;29.26
50592;BME280;36548;50.506;30.834;2023-06-04T04:53:18;100866.31;;;21.18;29.11
50592;BME280;36548;50.506;30.834;2023-06-04T04:54:27;100869.95;;;21.08;28.90
50592;BME280;36548;50.506;30.834;2023-06-04T04:55:43;100869.77;;;21.20;29.30
50592;BME280;36548;50.506;30.834;2023-06-04T04:56:52;100873.09;;;21.14;28.56
50592;BME280;36548;50.506;30.834;2023-06-04T04:58:07;100870.39;;;21.32;27.96
50592;BME280;36548;50.506;30.834;2023-06-04T04:59:18;100870.39;;;21.32;27.84
50592;BME280;36548;50.506;30.834;2023-06-04T05:00:33;100865.24;;;21.28;27.86
50592;BME280;36548;50.506;30.834;2023-06-04T05:01:43;100863.17;;;21.12;28.04
50592;BME280;36548;50.506;30.834;2023-06-04T05:02:58;100867.50;;;21.33;27.52
50592;BME280;36548;50.506;30.834;2023-06-04T05:04:08;100873.75;;;21.25;27.99
50592;BME280;36548;50.506;30.834;2023-06-04T05:05:23;100860.28;;;21.42;27.80
50592;BME280;36548;50.506;30.834;2023-06-04T05:06:33;100870.72;;;21.46;27.91
50592;BME280;36548;50.506;30.834;2023-06-04T05:07:56;100861.63;;;21.74;26.99
50592;BME280;36548;50.506;30.834;2023-06-04T05:09:08;100868.19;;;21.63;27.36
50592;BME280;36548;50.506;30.834;2023-06-04T05:10:18;100865.05;;;21.76;27.27
50592;BME280;36548;50.506;30.834;2023-06-04T05:11:28;100866.69;;;21.87;27.10
50592;BME280;36548;50.506;30.834;2023-06-04T05:12:37;100872.58;;;22.00;27.05
50592;BME280;36548;50.506;30.834;2023-06-04T05:13:52;100867.69;;;22.30;26.93
50592;BME280;36548;50.506;30.834;2023-06-04T05:15:01;100870.51;;;22.38;26.98
50592;BME280;36548;50.506;30.834;2023-06-04T05:16:19;100869.48;;;22.66;25.82
50592;BME280;36548;50.506;30.834;2023-06-04T05:17:30;100868.94;;;22.62;25.76
50592;BME280;36548;50.506;30.834;2023-06-04T05:18:45;100866.16;;;22.88;25.93
50592;BME280;36548;50.506;30.834;2023-06-04T05:19:56;100868.72;;;22.90;25.74
50592;BME280;36548;50.506;30.834;2023-06-04T05:21:16;100863.13;;;22.65;25.30
50592;BME280;36548;50.506;30.834;2023-06-04T05:22:27;100864.92;;;22.48;25.75
50592;BME280;36548;50.506;30.834;2023-06-04T05:23:43;100873.08;;;22.40;25.58
50592;BME280;36548;50.506;30.834;2023-06-04T05:24:54;100867.69;;;22.30;25.61
50592;BME280;36548;50.506;30.834;2023-06-04T05:26:11;100863.86;;;22.41;25.91
50592;BME280;36548;50.506;30.834;2023-06-04T05:27:21;100877.16;;;22.36;25.60
50592;BME280;36548;50.506;30.834;2023-06-04T05:28:36;100869.05;;;22.52;25.29
50592;BME280;36548;50.506;30.834;2023-06-04T05:29:48;100873.92;;;22.40;25.19
50592;BME280;36548;50.506;30.834;2023-06-04T05:31:04;100863.84;;;22.67;25.17
50592;BME280;36548;50.506;30.834;2023-06-04T05:32:15;100866.08;;;22.72;24.85
50592;BME280;36548;50.506;30.834;2023-06-04T05:33:32;100864.66;;;23.02;24.66
50592;BME280;36548;50.506;30.834;2023-06-04T05:34:43;100865.88;;;23.08;24.63
50592;BME280;36548;50.506;30.834;2023-06-04T05:35:58;100858.95;;;23.30;24.14
50592;BME280;36548;50.506;30.834;2023-06-04T05:37:10;100862.38;;;23.32;23.87
50592;BME280;36548;50.506;30.834;2023-06-04T05:38:26;100863.13;;;23.59;23.78
50592;BME280;36548;50.506;30.834;2023-06-04T05:39:38;100867.23;;;23.63;23.37
50592;BME280;36548;50.506;30.834;2023-06-04T05:40:54;100853.72;;;23.70;22.99
50592;BME280;36548;50.506;30.834;2023-06-04T05:42:06;100869.26;;;23.53;23.12
50592;BME280;36548;50.506;30.834;2023-06-04T05:43:22;100858.48;;;23.59;23.03
50592;BME280;36548;50.506;30.834;2023-06-04T05:44:31;100866.51;;;23.44;23.54
50592;BME280;36548;50.506;30.834;2023-06-04T05:45:47;100861.76;;;23.63;23.58
50592;BME280;36548;50.506;30.834;2023-06-04T05:46:57;100868.79;;;23.65;23.43
50592;BME280;36548;50.506;30.834;2023-06-04T05:48:12;100861.28;;;23.92;22.88
50592;BME280;36548;50.506;30.834;2023-06-04T05:49:21;100869.12;;;23.87;22.64
50592;BME280;36548;50.506;30.834;2023-06-04T05:50:40;100872.59;;;24.06;22.97
50592;BME280;36548;50.506;30.834;2023-06-04T05:51:50;100866.23;;;24.05;22.76
50592;BME280;36548;50.506;30.834;2023-06-04T05:53:06;100859.02;;;24.12;23.16
50592;BME280;36548;50.506;30.834;2023-06-04T05:54:16;100866.23;;;24.13;23.05
50592;BME280;36548;50.506;30.834;2023-06-04T05:55:38;100862.93;;;24.34;22.63
50592;BME280;36548;50.506;30.834;2023-06-04T05:56:49;100861.91;;;24.36;22.40
50592;BME280;36548;50.506;30.834;2023-06-04T05:58:04;100863.72;;;24.60;22.27
50592;BME280;36548;50.506;30.834;2023-06-04T05:59:14;100860.13;;;24.59;22.18
50592;BME280;36548;50.506;30.834;2023-06-04T06:00:25;100857.39;;;24.67;22.05
50592;BME280;36548;50.506;30.834;2023-06-04T06:01:40;100862.64;;;24.85;21.92
50592;BME280;36548;50.506;30.834;2023-06-04T06:02:50;100868.68;;;24.81;21.85
50592;BME280;36548;50.506;30.834;2023-06-04T06:04:07;100856.97;;;24.87;21.54
50592;BME280;36548;50.506;30.834;2023-06-04T06:05:18;100867.98;;;24.79;21.85
50592;BME280;36548;50.506;30.834;2023-06-04T06:06:35;100866.70;;;24.98;21.30
50592;BME280;36548;50.506;30.834;2023-06-04T06:07:45;100863.64;;;24.93;21.06
50592;BME280;36548;50.506;30.834;2023-06-04T06:09:01;100860.81;;;25.09;20.96
50592;BME280;36548;50.506;30.834;2023-06-04T06:10:12;100867.04;;;25.03;21.09
50592;BME280;36548;50.506;30.834;2023-06-04T06:11:28;100860.27;;;25.14;20.97
50592;BME280;36548;50.506;30.834;2023-06-04T06:12:38;100872.34;;;25.05;20.77
50592;BME280;36548;50.506;30.834;2023-06-04T06:13:54;100858.87;;;25.18;20.31
50592;BME280;36548;50.506;30.834;2023-06-04T06:15:11;100857.92;;;25.02;20.16
50592;BME280;36548;50.506;30.834;2023-06-04T06:16:27;100862.53;;;25.10;20.04
50592;BME280;36548;50.506;30.834;2023-06-04T06:17:38;100866.14;;;24.71;20.19
50592;BME280;36548;50.506;30.834;2023-06-04T06:18:53;100868.68;;;24.81;20.28
50592;BME280;36548;50.506;30.834;2023-06-04T06:20:04;100867.52;;;24.59;20.10
50592;BME280;36548;50.506;30.834;2023-06-04T06:21:28;100859.47;;;24.65;19.71
50592;BME280;36548;50.506;30.834;2023-06-04T06:22:38;100862.89;;;24.51;19.79